createdAt,value
2019-05-13T00:01:07.172Z,64.08
2019-05-13T00:03:36.211Z,63.99
2019-05-13T00:06:05.660Z,64.11
2019-05-13T00:08:35.064Z,64.10
2019-05-13T00:11:06.006Z,63.93
2019-05-13T00:13:35.506Z,64.06
2019-05-13T00:16:06.767Z,64.04
2019-05-13T00:18:36.498Z,64.03
2019-05-13T00:21:06.960Z,64.14
2019-05-13T00:23:39.390Z,64.26
2019-05-13T00:26:10.538Z,64.62
2019-05-13T00:28:41.046Z,64.80
2019-05-13T00:31:10.450Z,64.67
2019-05-13T00:33:39.905Z,64.76
2019-05-13T00:36:09.357Z,64.94
2019-05-13T00:38:39.937Z,64.89
2019-05-13T00:41:10.493Z,65.32
2019-05-13T00:43:41.357Z,65.54
2019-05-13T00:46:10.835Z,65.56
2019-05-13T00:48:43.968Z,65.45
2019-05-13T00:51:14.219Z,65.61
2019-05-13T00:53:44.319Z,65.58
2019-05-13T00:56:13.954Z,65.96
2019-05-13T00:58:46.973Z,65.52
2019-05-13T01:01:17.883Z,66.09
2019-05-13T01:03:49.641Z,66.09
2019-05-13T01:06:20.167Z,66.06
2019-05-13T01:08:53.578Z,65.88
2019-05-13T01:11:23.638Z,65.81
2019-05-13T01:13:54.956Z,65.68
2019-05-13T01:16:25.689Z,65.74
2019-05-13T01:18:56.437Z,65.74
2019-05-13T01:21:25.887Z,65.82
2019-05-13T01:23:55.292Z,65.85
2019-05-13T01:26:25.045Z,66.22
2019-05-13T01:28:55.745Z,66.32
2019-05-13T01:31:28.057Z,66.14
2019-05-13T01:33:58.990Z,66.45
2019-05-13T01:36:29.868Z,66.42
2019-05-13T01:38:59.284Z,66.48
2019-05-13T01:41:29.815Z,66.64
2019-05-13T01:44:00.651Z,66.67
2019-05-13T01:46:31.666Z,66.65
2019-05-13T01:49:04.963Z,66.77
2019-05-13T01:51:34.437Z,66.90
2019-05-13T01:54:04.245Z,67.11
2019-05-13T01:56:34.133Z,67.41
2019-05-13T01:59:03.816Z,67.25
2019-05-13T02:01:33.919Z,67.29
2019-05-13T02:04:04.981Z,67.27
2019-05-13T02:06:36.326Z,67.33
2019-05-13T02:09:07.394Z,67.15
2019-05-13T02:11:37.366Z,67.13
2019-05-13T02:14:07.871Z,67.30
2019-05-13T02:16:37.362Z,67.30
2019-05-13T02:19:08.066Z,67.26
2019-05-13T02:21:38.936Z,67.21
2019-05-13T02:24:08.425Z,67.25
2019-05-13T02:26:39.886Z,67.30
2019-05-13T02:29:10.446Z,67.45
2019-05-13T02:31:47.653Z,67.49
2019-05-13T02:34:13.739Z,67.75
2019-05-13T02:36:43.966Z,67.75
2019-05-13T02:39:15.080Z,67.73
2019-05-13T02:41:46.536Z,67.71
2019-05-13T02:44:15.957Z,67.58
2019-05-13T02:46:45.553Z,67.62
2019-05-13T02:49:16.678Z,67.61
2019-05-13T02:51:46.460Z,67.54
2019-05-13T02:54:18.652Z,67.51
2019-05-13T02:56:48.199Z,67.47
2019-05-13T02:59:18.835Z,67.76
2019-05-13T03:01:53.021Z,67.73
2019-05-13T03:04:23.482Z,67.86
2019-05-13T03:06:56.565Z,67.92
2019-05-13T03:09:26.173Z,67.84
2019-05-13T03:11:56.701Z,67.68
2019-05-13T03:14:27.889Z,67.64
2019-05-13T03:17:08.371Z,67.85
2019-05-13T03:19:38.948Z,68.07
2019-05-13T03:22:09.379Z,67.87
2019-05-13T03:24:42.956Z,67.87
2019-05-13T03:27:13.138Z,67.73
2019-05-13T03:29:43.492Z,67.96
2019-05-13T03:32:16.010Z,68.09
2019-05-13T03:34:45.767Z,67.69
2019-05-13T03:37:17.062Z,67.62
2019-05-13T03:39:52.160Z,67.56
2019-05-13T03:42:23.137Z,67.66
2019-05-13T03:44:55.622Z,67.70
2019-05-13T03:47:26.228Z,67.92
2019-05-13T03:50:03.480Z,67.93
2019-05-13T03:52:33.721Z,67.82
2019-05-13T03:55:05.120Z,67.85
2019-05-13T03:57:36.073Z,67.82
2019-05-13T04:00:08.138Z,67.64
2019-05-13T04:02:42.704Z,67.88
2019-05-13T04:05:13.430Z,67.88
2019-05-13T04:07:43.568Z,67.77
2019-05-13T04:10:13.638Z,68.12
2019-05-13T04:12:43.144Z,68.20
2019-05-13T04:15:13.019Z,67.89
2019-05-13T04:17:43.038Z,67.73
2019-05-13T04:20:14.304Z,68.12
2019-05-13T04:22:44.154Z,67.99
2019-05-13T04:25:15.572Z,67.65
2019-05-13T04:27:45.069Z,67.58
2019-05-13T04:30:16.478Z,67.49
2019-05-13T04:32:45.966Z,67.32
2019-05-13T04:35:15.375Z,67.42
2019-05-13T04:37:44.898Z,67.32
2019-05-13T04:40:16.137Z,67.05
2019-05-13T04:42:49.203Z,66.77
2019-05-13T04:45:19.570Z,66.76
2019-05-13T04:47:52.880Z,66.88
2019-05-13T04:50:22.623Z,66.76
2019-05-13T04:52:55.000Z,66.59
2019-05-13T04:55:24.643Z,66.60
2019-05-13T04:57:55.892Z,66.69
2019-05-13T05:01:07.577Z,66.61
2019-05-13T05:03:45.763Z,66.40
2019-05-13T05:06:44.778Z,66.37
2019-05-13T05:10:16.875Z,65.81
2019-05-13T05:13:02.787Z,65.40
2019-05-13T05:16:05.293Z,65.64
2019-05-13T05:19:03.877Z,65.87
2019-05-13T05:21:44.065Z,66.13
2019-05-13T05:24:53.720Z,66.17
2019-05-13T05:28:03.878Z,66.22
2019-05-13T05:31:02.739Z,66.09
2019-05-13T05:33:51.670Z,65.78
2019-05-13T05:36:41.456Z,65.49
2019-05-13T05:39:22.730Z,65.12
2019-05-13T05:41:56.254Z,65.10
2019-05-13T05:44:28.584Z,64.91
2019-05-13T05:47:02.617Z,64.87
2019-05-13T05:49:32.806Z,64.80
2019-05-13T05:52:06.451Z,64.82
2019-05-13T05:54:38.231Z,64.57
2019-05-13T05:57:12.157Z,64.59
2019-05-13T05:59:42.551Z,64.32
2019-05-13T06:02:12.709Z,63.80
2019-05-13T06:04:43.187Z,63.96
2019-05-13T06:07:15.735Z,63.69
2019-05-13T06:09:46.281Z,63.78
2019-05-13T06:12:16.351Z,63.66
2019-05-13T06:14:46.401Z,63.31
2019-05-13T06:17:16.067Z,62.51
2019-05-13T06:19:45.976Z,62.39
2019-05-13T06:22:15.559Z,62.14
2019-05-13T06:24:46.791Z,61.98
2019-05-13T06:27:21.304Z,61.79
2019-05-13T06:29:53.020Z,61.66
2019-05-13T06:32:26.277Z,61.13
2019-05-13T06:34:55.134Z,60.79
2019-05-13T06:37:24.560Z,60.45
2019-05-13T06:39:53.996Z,58.51
2019-05-13T06:42:23.502Z,50.44
2019-05-13T06:44:52.982Z,47.80
2019-05-13T06:47:22.400Z,43.41
2019-05-13T06:49:53.875Z,42.36
2019-05-13T06:52:25.116Z,38.72
2019-05-13T06:54:56.976Z,38.37
2019-05-13T06:57:27.925Z,36.34
2019-05-13T06:59:57.359Z,34.85
2019-05-13T07:02:26.775Z,33.92
2019-05-13T07:04:57.442Z,33.29
2019-05-13T07:07:26.851Z,33.02
2019-05-13T07:09:56.252Z,31.82
2019-05-13T07:12:25.716Z,30.39
2019-05-13T07:14:55.207Z,30.39
2019-05-13T07:17:24.613Z,29.33
2019-05-13T07:19:54.237Z,29.89
2019-05-13T07:22:26.589Z,28.29
2019-05-13T07:24:56.327Z,28.20
2019-05-13T07:27:25.939Z,27.64
2019-05-13T07:29:55.819Z,27.34
2019-05-13T07:32:25.503Z,26.72
2019-05-13T07:34:56.418Z,26.34
2019-05-13T07:37:27.633Z,26.14
2019-05-13T07:39:57.050Z,24.94
2019-05-13T07:42:26.623Z,25.18
2019-05-13T07:44:56.059Z,24.97
2019-05-13T07:47:25.478Z,24.79
2019-05-13T07:49:55.035Z,24.47
2019-05-13T07:52:25.703Z,24.69
2019-05-13T07:54:56.222Z,24.12
2019-05-13T07:57:25.960Z,23.92
2019-05-13T07:59:55.416Z,23.17
2019-05-13T08:02:24.953Z,23.22
2019-05-13T08:04:54.417Z,22.48
2019-05-13T08:07:23.835Z,22.35
2019-05-13T08:09:56.802Z,21.96
2019-05-13T08:12:25.033Z,22.42
2019-05-13T08:14:54.471Z,21.21
2019-05-13T08:17:23.879Z,20.93
2019-05-13T08:19:53.578Z,20.55
2019-05-13T08:22:22.992Z,20.26
2019-05-13T08:24:54.386Z,20.02
2019-05-13T08:27:30.346Z,19.38
2019-05-13T08:29:56.612Z,19.88
2019-05-13T08:32:27.137Z,19.41
2019-05-13T08:35:01.264Z,20.22
2019-05-13T08:37:28.016Z,19.60
2019-05-13T08:39:57.432Z,19.96
2019-05-13T08:42:26.965Z,19.62
2019-05-13T08:44:56.414Z,20.28
2019-05-13T08:47:27.347Z,19.68
2019-05-13T08:49:56.839Z,18.83
2019-05-13T08:52:26.254Z,19.10
2019-05-13T08:54:56.704Z,18.98
2019-05-13T08:57:26.206Z,18.61
2019-05-13T08:59:55.665Z,17.93
2019-05-13T09:02:25.095Z,16.92
2019-05-13T09:04:55.496Z,17.82
2019-05-13T09:07:24.930Z,16.82
2019-05-13T09:09:54.493Z,16.49
2019-05-13T09:14:55.855Z,15.95
2019-05-13T09:17:25.584Z,15.20
2019-05-13T09:19:55.346Z,15.57
2019-05-13T09:22:24.794Z,14.62
2019-05-13T09:24:54.240Z,13.80
2019-05-13T09:27:23.733Z,14.43
2019-05-13T09:29:53.239Z,14.49
2019-05-13T09:32:22.986Z,13.49
2019-05-13T09:34:52.761Z,13.88
2019-05-13T09:37:22.610Z,14.89
2019-05-13T09:39:52.181Z,15.38
2019-05-13T09:42:21.867Z,15.42
2019-05-13T09:44:52.492Z,17.05
2019-05-13T09:47:22.333Z,16.88
2019-05-13T09:49:54.363Z,17.89
2019-05-13T09:52:23.016Z,17.74
2019-05-13T09:54:52.582Z,18.15
2019-05-13T09:57:22.242Z,18.23
2019-05-13T09:59:52.431Z,18.82
2019-05-13T10:02:22.056Z,18.82
2019-05-13T10:04:51.752Z,18.22
2019-05-13T10:07:22.867Z,17.89
2019-05-13T10:09:52.539Z,17.52
2019-05-13T10:12:24.327Z,17.72
2019-05-13T10:14:53.202Z,17.99
2019-05-13T10:17:22.721Z,17.68
2019-05-13T10:19:52.640Z,17.54
2019-05-13T10:22:22.211Z,18.71
2019-05-13T10:24:51.727Z,18.40
2019-05-13T10:27:22.521Z,18.95
2019-05-13T10:29:52.436Z,19.37
2019-05-13T10:32:22.156Z,19.77
2019-05-13T10:34:55.127Z,18.94
2019-05-13T10:37:24.665Z,18.45
2019-05-13T10:39:57.280Z,20.46
2019-05-13T10:42:27.177Z,20.43
2019-05-13T10:44:56.790Z,20.20
2019-05-13T10:47:26.186Z,20.68
2019-05-13T10:49:55.732Z,21.32
2019-05-13T10:52:25.130Z,22.39
2019-05-13T10:54:54.581Z,21.22
2019-05-13T10:57:24.243Z,21.37
2019-05-13T10:59:53.822Z,21.89
2019-05-13T11:02:23.220Z,22.24
2019-05-13T11:04:52.858Z,22.37
2019-05-13T11:07:22.675Z,23.49
2019-05-13T11:09:52.918Z,22.36
2019-05-13T11:12:27.993Z,22.54
2019-05-13T11:14:55.452Z,22.32
2019-05-13T11:17:43.603Z,22.26
2019-05-13T11:19:56.493Z,22.70
2019-05-13T11:22:26.220Z,23.06
2019-05-13T11:24:55.928Z,22.84
2019-05-13T11:27:25.396Z,23.53
2019-05-13T11:29:54.896Z,23.23
2019-05-13T11:32:24.292Z,25.15
2019-05-13T11:34:53.767Z,25.15
2019-05-13T11:37:23.483Z,26.57
2019-05-13T11:39:52.981Z,27.04
2019-05-13T11:42:22.940Z,26.94
2019-05-13T11:44:53.008Z,26.77
2019-05-13T11:47:22.576Z,26.16
2019-05-13T11:49:52.509Z,26.47
2019-05-13T11:52:23.377Z,26.49
2019-05-13T11:57:27.080Z,26.31
2019-05-13T11:59:56.506Z,26.91
2019-05-13T12:02:26.057Z,26.45
2019-05-13T12:04:55.562Z,27.29
2019-05-13T12:07:25.044Z,27.12
2019-05-13T12:09:54.612Z,26.94
2019-05-13T12:12:30.508Z,26.73
2019-05-13T12:15:22.187Z,26.67
2019-05-13T12:17:29.188Z,25.88
2019-05-13T12:20:02.999Z,26.93
2019-05-13T12:22:33.821Z,26.58
2019-05-13T12:25:03.943Z,27.01
2019-05-13T12:27:36.049Z,26.46
2019-05-13T12:30:06.143Z,26.00
2019-05-13T12:32:37.401Z,26.14
2019-05-13T12:35:08.150Z,26.57
2019-05-13T12:37:38.578Z,26.72
2019-05-13T12:40:10.907Z,26.76
2019-05-13T12:42:46.785Z,27.43
2019-05-13T12:45:14.241Z,27.96
2019-05-13T12:47:43.499Z,28.28
2019-05-13T12:50:14.128Z,28.00
2019-05-13T12:52:43.979Z,27.87
2019-05-13T12:55:15.176Z,28.01
2019-05-13T12:57:46.321Z,28.03
2019-05-13T13:00:16.841Z,27.79
2019-05-13T13:02:51.608Z,27.99
2019-05-13T13:05:21.350Z,27.79
2019-05-13T13:08:15.892Z,27.55
2019-05-13T13:10:23.644Z,26.96
2019-05-13T13:12:54.944Z,27.26
2019-05-13T13:15:41.226Z,27.47
2019-05-13T13:17:57.464Z,27.28
2019-05-13T13:20:32.668Z,27.75
2019-05-13T13:23:04.470Z,28.00
2019-05-13T13:25:33.817Z,27.76
2019-05-13T13:30:35.748Z,27.43
2019-05-13T13:33:05.240Z,27.37
2019-05-13T13:35:34.947Z,27.35
2019-05-13T13:38:04.732Z,27.37
2019-05-13T13:40:35.729Z,27.35
2019-05-13T13:43:05.636Z,27.46
2019-05-13T13:46:05.970Z,27.79
2019-05-13T13:48:13.383Z,27.54
2019-05-13T13:50:44.331Z,27.71
2019-05-13T13:53:14.538Z,27.11
2019-05-13T13:55:45.575Z,27.20
2019-05-13T13:58:15.062Z,26.59
2019-05-13T14:00:56.456Z,26.78
2019-05-13T14:03:17.058Z,26.74
2019-05-13T14:05:47.896Z,26.64
2019-05-13T14:06:25.038Z,15.32
2019-05-13T14:06:30.769Z,26.51
2019-05-13T14:07:09.043Z,27.64
2019-05-13T14:08:17.379Z,27.16
2019-05-13T14:10:51.211Z,27.50
2019-05-13T14:13:21.758Z,27.44
2019-05-13T14:15:52.687Z,27.64
2019-05-13T14:18:26.590Z,27.92
2019-05-13T14:20:55.167Z,27.98
2019-05-13T14:23:24.701Z,28.28
2019-05-13T14:25:54.125Z,28.14
2019-05-13T14:28:23.838Z,27.58
2019-05-13T14:30:53.426Z,27.58
2019-05-13T14:33:23.255Z,27.24
2019-05-13T14:35:53.186Z,27.58
2019-05-13T14:38:22.786Z,28.33
2019-05-13T14:40:52.834Z,28.41
2019-05-13T14:43:23.091Z,28.45
2019-05-13T14:45:52.646Z,27.99
2019-05-13T14:48:22.611Z,27.98
2019-05-13T14:50:53.981Z,28.23
2019-05-13T14:53:23.489Z,28.73
2019-05-13T14:55:54.391Z,28.57
2019-05-13T14:58:24.974Z,28.29
2019-05-13T15:01:11.507Z,28.57
2019-05-13T15:03:25.536Z,28.94
2019-05-13T15:05:55.449Z,29.49
2019-05-13T15:08:26.029Z,29.54
2019-05-13T15:10:55.678Z,29.91
2019-05-13T15:13:27.472Z,29.56
2019-05-13T15:15:56.950Z,29.91
2019-05-13T15:18:26.458Z,30.43
2019-05-13T15:20:56.239Z,30.73
2019-05-13T15:23:26.894Z,30.93
2019-05-13T15:25:56.295Z,30.84
2019-05-13T15:28:25.746Z,31.09
2019-05-13T15:30:55.203Z,31.34
2019-05-13T15:33:24.913Z,31.62
2019-05-13T15:35:55.056Z,32.09
2019-05-13T15:38:25.606Z,32.63
2019-05-13T15:40:56.605Z,32.47
2019-05-13T15:43:27.178Z,32.29
2019-05-13T15:45:56.580Z,32.20
2019-05-13T15:48:26.034Z,32.48
2019-05-13T15:50:55.694Z,32.84
2019-05-13T15:53:26.564Z,33.31
2019-05-13T15:55:56.036Z,33.42
2019-05-13T15:58:38.443Z,34.05
2019-05-13T16:00:56.939Z,34.19
2019-05-13T16:03:27.548Z,34.80
2019-05-13T16:05:57.069Z,34.65
2019-05-13T16:08:26.510Z,35.06
2019-05-13T16:10:56.152Z,35.30
2019-05-13T16:13:27.585Z,35.04
2019-05-13T16:15:57.202Z,35.22
2019-05-13T16:18:26.741Z,35.44
2019-05-13T16:21:01.514Z,35.54
2019-05-13T16:23:32.599Z,35.90
2019-05-13T16:26:02.342Z,35.97
2019-05-13T16:28:33.134Z,35.43
2019-05-13T16:31:02.776Z,35.66
2019-05-13T16:33:32.198Z,35.50
2019-05-13T16:36:37.191Z,36.14
2019-05-13T16:38:33.560Z,36.29
2019-05-13T16:41:03.011Z,36.40
2019-05-13T16:43:33.053Z,36.64
2019-05-13T16:46:02.489Z,37.06
2019-05-13T16:48:32.492Z,36.93
2019-05-13T16:51:02.157Z,37.39
2019-05-13T16:53:32.082Z,37.13
2019-05-13T16:56:02.104Z,36.96
2019-05-13T16:58:32.641Z,36.92
2019-05-13T17:01:02.753Z,37.30
2019-05-13T17:03:32.243Z,37.50
2019-05-13T17:06:02.440Z,37.76
2019-05-13T17:08:32.250Z,37.99
2019-05-13T17:11:02.452Z,38.27
2019-05-13T17:13:32.097Z,38.14
2019-05-13T17:16:02.042Z,38.40
2019-05-13T17:18:32.561Z,38.58
2019-05-13T17:21:02.693Z,38.94
2019-05-13T17:23:32.139Z,38.99
2019-05-13T17:26:02.771Z,38.74
2019-05-13T17:28:34.206Z,38.96
2019-05-13T17:31:03.994Z,39.45
2019-05-13T17:33:33.444Z,39.44
2019-05-13T17:36:02.882Z,39.61
2019-05-13T17:38:32.631Z,39.96
2019-05-13T17:41:03.347Z,39.95
2019-05-13T17:43:33.207Z,40.44
2019-05-13T17:46:04.511Z,40.64
2019-05-13T17:48:34.924Z,40.74
2019-05-13T17:51:04.531Z,41.23
2019-05-13T17:53:33.923Z,41.23
2019-05-13T17:56:03.306Z,41.75
2019-05-13T17:58:32.746Z,42.19
2019-05-13T18:01:02.179Z,42.39
2019-05-13T18:03:32.563Z,42.54
2019-05-13T18:06:02.726Z,42.78
2019-05-13T18:08:32.381Z,42.66
2019-05-13T18:11:02.637Z,42.77
2019-05-13T18:13:34.476Z,43.03
2019-05-13T18:16:05.676Z,43.12
2019-05-13T18:18:43.047Z,42.97
2019-05-13T18:21:06.535Z,43.16
2019-05-13T18:23:35.976Z,43.38
2019-05-13T18:26:05.541Z,44.03
2019-05-13T18:28:36.862Z,44.81
2019-05-13T18:31:06.268Z,45.06
2019-05-13T18:33:36.887Z,44.87
2019-05-13T18:36:06.326Z,45.68
2019-05-13T18:38:35.732Z,45.41
2019-05-13T18:41:05.131Z,45.49
2019-05-13T18:43:34.929Z,45.79
2019-05-13T18:46:04.704Z,46.16
2019-05-13T18:48:34.088Z,46.45
2019-05-13T18:51:05.450Z,46.77
2019-05-13T18:53:34.838Z,47.04
2019-05-13T18:56:05.566Z,47.46
2019-05-13T18:58:35.014Z,47.47
2019-05-13T19:01:04.451Z,48.18
2019-05-13T19:03:35.623Z,48.13
2019-05-13T19:06:08.463Z,48.65
2019-05-13T19:08:41.214Z,48.84
2019-05-13T19:11:12.015Z,48.47
2019-05-13T19:13:42.997Z,49.03
2019-05-13T19:16:15.305Z,48.76
2019-05-13T19:18:46.850Z,49.62
2019-05-13T19:21:16.683Z,49.64
2019-05-13T19:23:46.154Z,49.88
2019-05-13T19:26:17.339Z,50.04
2019-05-13T19:28:46.781Z,50.04
2019-05-13T19:31:17.776Z,50.72
2019-05-13T19:33:47.375Z,50.51
2019-05-13T19:36:16.870Z,50.81
2019-05-13T19:38:46.257Z,50.77
2019-05-13T19:41:15.634Z,51.09
2019-05-13T19:43:46.211Z,51.10
2019-05-13T19:46:17.452Z,51.60
2019-05-13T19:48:47.168Z,51.43
2019-05-13T19:51:17.984Z,51.65
2019-05-13T19:53:51.547Z,52.03
2019-05-13T19:56:21.383Z,52.55
2019-05-13T19:58:51.140Z,52.42
2019-05-13T20:01:21.678Z,53.04
2019-05-13T20:03:54.313Z,52.86
2019-05-13T20:06:26.937Z,52.96
2019-05-13T20:08:56.765Z,53.06
2019-05-13T20:11:27.103Z,52.75
2019-05-13T20:13:57.940Z,53.04
2019-05-13T20:16:27.549Z,53.16
2019-05-13T20:18:57.649Z,53.28
2019-05-13T20:21:27.708Z,53.44
2019-05-13T20:24:00.329Z,53.47
2019-05-13T20:26:41.437Z,53.85
2019-05-13T20:29:12.563Z,53.66
2019-05-13T20:31:45.456Z,54.04
2019-05-13T20:34:17.724Z,53.68
2019-05-13T20:36:51.603Z,53.59
2019-05-13T20:39:23.781Z,53.83
2019-05-13T20:41:55.933Z,54.10
2019-05-13T20:44:25.554Z,53.89
2019-05-13T20:46:57.634Z,54.10
2019-05-13T20:49:28.513Z,54.51
2019-05-13T20:51:58.345Z,54.52
2019-05-13T20:54:27.747Z,54.60
2019-05-13T20:56:57.285Z,55.13
2019-05-13T20:59:26.977Z,55.13
2019-05-13T21:01:56.572Z,55.03
2019-05-13T21:04:26.063Z,54.87
2019-05-13T21:06:55.593Z,54.59
2019-05-13T21:09:25.125Z,54.79
2019-05-13T21:11:54.580Z,55.27
2019-05-13T21:14:24.606Z,55.73
2019-05-13T21:16:54.043Z,55.78
2019-05-13T21:19:25.165Z,55.67
2019-05-13T21:21:55.789Z,55.95
2019-05-13T21:24:26.502Z,56.17
2019-05-13T21:26:56.921Z,55.84
2019-05-13T21:29:28.627Z,55.79
2019-05-13T21:31:58.490Z,56.46
2019-05-13T21:34:31.449Z,56.00
2019-05-13T21:37:02.464Z,56.23
2019-05-13T21:39:32.611Z,56.37
2019-05-13T21:42:02.652Z,56.26
2019-05-13T21:44:33.865Z,56.81
2019-05-13T21:47:04.799Z,56.81
2019-05-13T21:49:36.128Z,57.27
2019-05-13T21:52:06.774Z,57.50
2019-05-13T21:54:42.018Z,57.49
2019-05-13T21:57:13.999Z,57.47
2019-05-13T21:59:45.207Z,57.65
2019-05-13T22:02:14.773Z,57.75
2019-05-13T22:04:44.183Z,57.92
2019-05-13T22:07:13.596Z,57.84
2019-05-13T22:09:43.187Z,58.23
2019-05-13T22:12:12.627Z,58.79
2019-05-13T22:14:42.391Z,59.01
2019-05-13T22:17:12.486Z,58.97
2019-05-13T22:19:42.130Z,58.69
2019-05-13T22:22:11.872Z,59.19
2019-05-13T22:24:42.356Z,59.33
2019-05-13T22:27:13.219Z,59.02
2019-05-13T22:29:43.738Z,59.45
2019-05-13T22:32:13.283Z,59.40
2019-05-13T22:34:44.199Z,59.71
2019-05-13T22:37:14.871Z,59.52
2019-05-13T22:39:46.080Z,59.32
2019-05-13T22:42:15.580Z,59.33
2019-05-13T22:44:46.176Z,59.88
2019-05-13T22:47:16.885Z,60.45
2019-05-13T22:49:47.609Z,60.19
2019-05-13T22:52:18.396Z,60.38
2019-05-13T22:54:51.659Z,60.32
2019-05-13T22:57:22.118Z,60.51
2019-05-13T22:59:52.750Z,60.84
2019-05-13T23:02:23.258Z,60.75
2019-05-13T23:04:52.738Z,61.05
2019-05-13T23:07:22.469Z,61.32
2019-05-13T23:09:53.112Z,61.76
2019-05-13T23:12:24.313Z,61.90
2019-05-13T23:14:55.697Z,61.89
2019-05-13T23:17:25.129Z,61.68
2019-05-13T23:19:54.576Z,62.03
2019-05-13T23:22:24.064Z,62.19
2019-05-13T23:24:53.566Z,61.83
2019-05-13T23:27:22.972Z,61.50
2019-05-13T23:29:52.627Z,61.65
2019-05-13T23:32:23.070Z,62.14
2019-05-13T23:34:53.953Z,62.55
2019-05-13T23:37:26.378Z,62.86
2019-05-13T23:39:56.003Z,63.23
2019-05-13T23:42:26.936Z,62.77
2019-05-13T23:44:56.576Z,62.93
2019-05-13T23:47:26.176Z,62.98
2019-05-13T23:49:55.621Z,62.76
2019-05-13T23:52:25.380Z,63.05
2019-05-13T23:54:54.861Z,63.09
2019-05-13T23:57:24.435Z,63.55
2019-05-13T23:59:55.032Z,63.82
